createdAt,value
2022-11-29T00:00:41.797Z,96585.75
2022-11-29T00:03:08.259Z,96590.06
2022-11-29T00:05:35.100Z,96583.44
2022-11-29T00:08:01.551Z,96584.91
2022-11-29T00:10:27.955Z,96577.38
2022-11-29T00:12:54.296Z,96580.63
2022-11-29T00:15:20.816Z,96579.75
2022-11-29T00:17:48.160Z,96586.69
2022-11-29T00:20:14.538Z,96573.94
2022-11-29T00:22:40.923Z,96585.06
2022-11-29T00:25:07.494Z,96584.22
2022-11-29T00:27:33.881Z,96575.66
2022-11-29T00:30:00.290Z,96578.22
2022-11-29T00:32:26.763Z,96578.22
2022-11-29T00:34:53.251Z,96580.81
2022-11-29T00:37:19.662Z,96579.91
2022-11-29T00:39:46.031Z,96572.53
2022-11-29T00:42:12.511Z,96578.28
2022-11-29T00:44:38.834Z,96577.56
2022-11-29T00:47:05.223Z,96574.97
2022-11-29T00:49:31.579Z,96577.50
2022-11-29T00:51:57.983Z,96575.84
2022-11-29T00:54:24.459Z,96572.53
2022-11-29T00:56:50.897Z,96574.31
2022-11-29T00:59:17.252Z,96577.50
2022-11-29T01:01:44.135Z,96568.47
2022-11-29T01:04:10.657Z,96571.78
2022-11-29T01:06:37.278Z,96551.22
2022-11-29T01:09:04.967Z,96575.09
2022-11-29T01:11:31.376Z,96569.09
2022-11-29T01:14:00.500Z,96574.66
2022-11-29T01:16:28.355Z,96576.19
2022-11-29T01:18:54.753Z,96578.78
2022-11-29T01:21:24.015Z,96574.53
2022-11-29T01:23:52.123Z,96576.97
2022-11-29T01:26:20.915Z,96576.91
2022-11-29T01:28:49.378Z,96582.84
2022-11-29T01:31:22.535Z,96578.38
2022-11-29T01:33:49.193Z,96582.84
2022-11-29T01:36:15.549Z,96581.28
2022-11-29T01:38:45.061Z,96576.78
2022-11-29T01:41:26.956Z,96581.97
2022-11-29T01:43:57.997Z,96577.63
2022-11-29T01:46:24.991Z,96575.09
2022-11-29T01:48:56.096Z,96574.31
2022-11-29T01:51:22.692Z,96573.38
2022-11-29T01:53:49.147Z,96573.31
2022-11-29T01:56:16.292Z,96574.16
2022-11-29T01:58:44.819Z,96567.44
2022-11-29T02:01:11.357Z,96570.06
2022-11-29T02:03:37.894Z,96567.63
2022-11-29T02:06:06.147Z,96563.34
2022-11-29T02:08:37.622Z,96566.72
2022-11-29T02:11:19.185Z,96561.81
2022-11-29T02:14:43.320Z,96566.78
2022-11-29T02:17:30.849Z,96566.94
2022-11-29T02:20:22.690Z,96562.72
2022-11-29T02:22:57.781Z,96567.69
2022-11-29T02:25:46.096Z,96561.66
2022-11-29T02:28:15.482Z,96569.47
2022-11-29T02:30:50.985Z,96565.94
2022-11-29T02:33:32.510Z,96569.19
2022-11-29T02:36:17.734Z,96569.34
2022-11-29T02:38:58.709Z,96573.78
2022-11-29T02:42:10.070Z,96567.00
2022-11-29T02:44:45.840Z,96569.47
2022-11-29T02:47:26.697Z,96565.25
2022-11-29T02:50:08.988Z,96569.47
2022-11-29T02:53:01.360Z,96561.06
2022-11-29T02:55:38.339Z,96567.72
2022-11-29T02:58:25.115Z,96566.97
2022-11-29T03:01:09.124Z,96575.47
2022-11-29T03:04:03.054Z,96568.00
2022-11-29T03:07:10.036Z,96562.81
2022-11-29T03:09:46.649Z,96580.53
2022-11-29T03:12:26.089Z,96577.72
2022-11-29T03:15:17.447Z,96579.56
2022-11-29T03:18:00.993Z,96588.91
2022-11-29T03:20:39.186Z,96590.56
2022-11-29T03:23:27.473Z,96587.31
2022-11-29T03:26:04.675Z,96587.25
2022-11-29T03:28:49.195Z,96588.31
2022-11-29T03:31:25.846Z,96591.56
2022-11-29T03:34:20.268Z,96587.34
2022-11-29T03:37:12.997Z,96592.44
2022-11-29T03:40:02.247Z,96588.31
2022-11-29T03:42:38.310Z,96589.81
2022-11-29T03:45:13.211Z,96598.22
2022-11-29T03:47:51.440Z,96594.94
2022-11-29T03:50:25.070Z,96589.97
2022-11-29T03:53:28.946Z,96596.84
2022-11-29T03:56:03.635Z,96589.91
2022-11-29T03:58:44.981Z,96584.81
2022-11-29T04:01:43.544Z,96596.75
2022-11-29T04:04:31.887Z,96605.19
2022-11-29T04:06:58.177Z,96596.81
2022-11-29T04:09:30.270Z,96597.69
2022-11-29T04:12:15.328Z,96593.56
2022-11-29T04:15:10.528Z,96591.91
2022-11-29T04:18:01.708Z,96595.97
2022-11-29T04:21:06.961Z,96599.50
2022-11-29T04:23:55.396Z,96601.44
2022-11-29T04:26:51.080Z,96601.22
2022-11-29T04:29:26.610Z,96607.13
2022-11-29T04:32:18.001Z,96604.53
2022-11-29T04:34:55.038Z,96602.06
2022-11-29T04:37:52.302Z,96603.09
2022-11-29T04:40:18.560Z,96607.16
2022-11-29T04:43:19.949Z,96604.69
2022-11-29T04:46:12.921Z,96609.00
2022-11-29T04:49:00.799Z,96609.09
2022-11-29T04:51:57.736Z,96615.94
2022-11-29T04:54:36.276Z,96612.41
2022-11-29T04:57:19.769Z,96618.94
2022-11-29T04:59:59.953Z,96615.72
2022-11-29T05:02:26.283Z,96620.78
2022-11-29T05:05:04.572Z,96621.94
2022-11-29T05:07:39.353Z,96616.69
2022-11-29T05:10:23.066Z,96629.31
2022-11-29T05:12:59.428Z,96620.06
2022-11-29T05:15:56.065Z,96626.72
2022-11-29T05:18:57.340Z,96620.22
2022-11-29T05:21:47.553Z,96626.13
2022-11-29T05:24:38.267Z,96629.22
2022-11-29T05:27:18.221Z,96631.03
2022-11-29T05:30:01.208Z,96632.91
2022-11-29T05:32:36.867Z,96621.81
2022-11-29T05:35:40.350Z,96631.31
2022-11-29T05:38:50.719Z,96627.84
2022-11-29T05:41:38.641Z,96631.19
2022-11-29T05:44:13.263Z,96631.25
2022-11-29T05:46:57.479Z,96636.53
2022-11-29T05:49:49.015Z,96642.50
2022-11-29T05:52:26.822Z,96637.38
2022-11-29T05:55:03.245Z,96638.91
2022-11-29T05:57:48.047Z,96645.56
2022-11-29T06:00:16.940Z,96644.63
2022-11-29T06:02:58.266Z,96644.56
2022-11-29T06:05:45.712Z,96647.88
2022-11-29T06:08:36.352Z,96654.66
2022-11-29T06:11:24.738Z,96652.06
2022-11-29T06:14:13.599Z,96654.69
2022-11-29T06:17:18.541Z,96649.59
2022-11-29T06:20:10.121Z,96654.66
2022-11-29T06:22:42.426Z,96652.81
2022-11-29T06:25:27.568Z,96652.16
2022-11-29T06:28:31.760Z,96663.88
2022-11-29T06:31:39.808Z,96663.91
2022-11-29T06:34:09.310Z,96668.19
2022-11-29T06:36:47.461Z,96670.66
2022-11-29T06:39:14.596Z,96660.47
2022-11-29T06:41:40.965Z,96670.00
2022-11-29T06:44:07.736Z,96675.03
2022-11-29T06:46:47.617Z,96671.72
2022-11-29T06:49:24.722Z,96674.19
2022-11-29T06:51:59.150Z,96677.78
2022-11-29T06:54:41.465Z,96681.13
2022-11-29T06:57:17.181Z,96678.72
2022-11-29T06:59:59.211Z,96681.25
2022-11-29T07:02:42.778Z,96684.44
2022-11-29T07:05:34.277Z,96686.19
2022-11-29T07:08:19.339Z,96686.19
2022-11-29T07:10:49.845Z,96687.97
2022-11-29T07:13:18.057Z,96685.53
2022-11-29T07:16:02.444Z,96694.84
2022-11-29T07:18:39.306Z,96693.09
2022-11-29T07:21:08.350Z,96695.63
2022-11-29T07:23:45.277Z,96700.97
2022-11-29T07:26:35.029Z,96699.31
2022-11-29T07:29:22.806Z,96694.25
2022-11-29T07:32:09.799Z,96700.03
2022-11-29T07:34:57.711Z,96705.91
2022-11-29T07:37:35.084Z,96700.19
2022-11-29T07:40:23.755Z,96704.50
2022-11-29T07:42:56.324Z,96701.75
2022-11-29T07:45:29.478Z,96706.69
2022-11-29T07:47:55.835Z,96704.94
2022-11-29T07:50:22.278Z,96705.03
2022-11-29T07:52:49.042Z,96711.94
2022-11-29T07:55:19.188Z,96713.75
2022-11-29T07:57:46.103Z,96709.91
2022-11-29T08:00:13.419Z,96716.44
2022-11-29T08:02:40.525Z,96707.25
2022-11-29T08:05:07.606Z,96715.84
2022-11-29T08:07:35.755Z,96725.75
2022-11-29T08:10:02.709Z,96718.88
2022-11-29T08:12:29.083Z,96717.25
2022-11-29T08:14:55.582Z,96717.25
2022-11-29T08:17:22.128Z,96719.78
2022-11-29T08:19:48.499Z,96716.44
2022-11-29T08:22:14.867Z,96726.03
2022-11-29T08:24:41.288Z,96731.75
2022-11-29T08:27:07.702Z,96725.09
2022-11-29T08:29:34.160Z,96725.03
2022-11-29T08:32:00.605Z,96730.09
2022-11-29T08:34:27.514Z,96735.16
2022-11-29T08:36:56.914Z,96731.97
2022-11-29T08:39:23.667Z,96726.97
2022-11-29T08:41:50.218Z,96736.31
2022-11-29T08:44:16.758Z,96735.56
2022-11-29T08:47:01.808Z,96744.16
2022-11-29T08:49:28.162Z,96738.38
2022-11-29T08:52:14.456Z,96741.91
2022-11-29T08:54:40.810Z,96721.38
2022-11-29T08:59:53.555Z,96750.78
2022-11-29T09:02:20.033Z,96737.31
2022-11-29T09:04:46.637Z,96743.25
2022-11-29T09:07:13.208Z,96747.84
2022-11-29T09:09:39.572Z,96746.78
2022-11-29T09:12:08.539Z,96764.38
2022-11-29T09:14:35.007Z,96758.53
2022-11-29T09:17:01.667Z,96749.25
2022-11-29T09:19:28.459Z,96750.31
2022-11-29T09:21:54.838Z,96761.22
2022-11-29T09:24:21.215Z,96763.84
2022-11-29T09:26:50.213Z,96758.84
2022-11-29T09:29:17.354Z,96754.44
2022-11-29T09:31:45.194Z,96762.31
2022-11-29T09:34:16.263Z,96772.16
2022-11-29T09:36:45.548Z,96761.91
2022-11-29T09:39:14.858Z,96766.44
2022-11-29T09:41:59.830Z,96757.91
2022-11-29T09:44:54.992Z,96765.72
2022-11-29T09:47:31.818Z,96763.19
2022-11-29T09:50:19.726Z,96760.84
2022-11-29T09:53:17.375Z,96766.19
2022-11-29T09:56:14.892Z,96764.38
2022-11-29T09:58:48.119Z,96769.25
2022-11-29T10:01:23.352Z,96770.06
2022-11-29T10:03:54.291Z,96774.44
2022-11-29T10:06:26.848Z,96772.78
2022-11-29T10:09:04.514Z,96775.38
2022-11-29T10:11:43.135Z,96767.09
2022-11-29T10:14:18.038Z,96770.44
2022-11-29T10:16:50.834Z,96770.34
2022-11-29T10:19:17.191Z,96770.44
2022-11-29T10:21:49.940Z,96770.56
2022-11-29T10:24:20.426Z,96771.59
2022-11-29T10:26:46.893Z,96761.41
2022-11-29T10:29:15.172Z,96762.94
2022-11-29T10:31:44.685Z,96763.75
2022-11-29T10:34:20.333Z,96768.78
2022-11-29T10:36:50.471Z,96762.09
2022-11-29T10:39:25.365Z,96764.69
2022-11-29T10:41:56.409Z,96764.03
2022-11-29T10:44:24.214Z,96763.28
2022-11-29T10:46:51.302Z,96756.47
2022-11-29T10:49:20.713Z,96757.97
2022-11-29T10:51:47.321Z,96755.53
2022-11-29T10:54:41.729Z,96759.88
2022-11-29T10:57:20.884Z,96766.88
2022-11-29T11:00:11.415Z,96763.28
2022-11-29T11:02:38.020Z,96761.59
2022-11-29T11:05:18.306Z,96756.03
2022-11-29T11:07:47.392Z,96760.44
2022-11-29T11:10:26.359Z,96757.03
2022-11-29T11:13:08.018Z,96758.66
2022-11-29T11:15:36.761Z,96753.63
2022-11-29T11:18:06.724Z,96767.94
2022-11-29T11:20:36.368Z,96761.97
2022-11-29T11:23:04.335Z,96769.53
2022-11-29T11:25:37.084Z,96766.25
2022-11-29T11:28:15.481Z,96771.38
2022-11-29T11:30:54.289Z,96765.50
2022-11-29T11:33:32.717Z,96771.88
2022-11-29T11:36:04.203Z,96774.47
2022-11-29T11:38:31.101Z,96758.22
2022-11-29T11:41:12.380Z,96771.66
2022-11-29T11:43:39.842Z,96773.44
2022-11-29T11:46:08.113Z,96777.72
2022-11-29T11:48:35.413Z,96772.38
2022-11-29T11:51:01.827Z,96767.31
2022-11-29T11:53:35.744Z,96773.97
2022-11-29T11:56:07.098Z,96781.09
2022-11-29T11:58:52.076Z,96780.44
2022-11-29T12:01:30.596Z,96775.19
2022-11-29T12:03:56.905Z,96782.72
2022-11-29T12:06:35.670Z,96780.31
2022-11-29T12:09:36.126Z,96776.84
2022-11-29T12:12:23.915Z,96782.16
2022-11-29T12:14:59.612Z,96783.44
2022-11-29T12:17:39.922Z,96780.28
2022-11-29T12:20:32.662Z,96781.03
2022-11-29T12:23:14.478Z,96786.84
2022-11-29T12:25:58.239Z,96788.75
2022-11-29T12:28:38.946Z,96784.19
2022-11-29T12:31:42.693Z,96788.22
2022-11-29T12:34:36.330Z,96787.16
2022-11-29T12:37:24.162Z,96786.47
2022-11-29T12:40:25.707Z,96789.75
2022-11-29T12:43:02.794Z,96784.19
2022-11-29T12:45:41.256Z,96787.63
2022-11-29T12:48:42.770Z,96790.44
2022-11-29T12:51:09.066Z,96786.16
2022-11-29T12:53:38.134Z,96791.00
2022-11-29T12:56:35.610Z,96797.69
2022-11-29T12:59:20.363Z,96790.34
2022-11-29T13:02:20.697Z,96795.38
2022-11-29T13:05:18.852Z,96797.13
2022-11-29T13:08:10.939Z,96800.50
2022-11-29T13:10:49.372Z,96794.38
2022-11-29T13:13:36.084Z,96800.53
2022-11-29T13:16:20.227Z,96803.22
2022-11-29T13:18:57.522Z,96799.94
2022-11-29T13:21:37.244Z,96800.63
2022-11-29T13:24:11.782Z,96800.81
2022-11-29T13:26:40.443Z,96804.22
2022-11-29T13:29:12.425Z,96802.53
2022-11-29T13:31:39.664Z,96800.56
2022-11-29T13:34:24.745Z,96805.91
2022-11-29T13:37:00.303Z,96818.81
2022-11-29T13:39:44.254Z,96814.06
2022-11-29T13:42:44.981Z,96814.81
2022-11-29T13:45:23.506Z,96819.75
2022-11-29T13:47:59.007Z,96811.91
2022-11-29T13:50:45.924Z,96821.25
2022-11-29T13:53:19.003Z,96819.50
2022-11-29T13:55:49.755Z,96815.16
2022-11-29T13:58:17.961Z,96831.38
2022-11-29T14:00:44.684Z,96822.28
2022-11-29T14:03:23.295Z,96824.16
2022-11-29T14:05:52.628Z,96825.19
2022-11-29T14:08:55.108Z,96832.06
2022-11-29T14:11:27.156Z,96837.22
2022-11-29T14:14:05.179Z,96832.06
2022-11-29T14:16:37.725Z,96815.78
2022-11-29T14:19:09.888Z,96831.31
2022-11-29T14:22:07.546Z,96827.22
2022-11-29T14:24:37.113Z,96831.38
2022-11-29T14:27:06.542Z,96826.81
2022-11-29T14:29:48.512Z,96826.06
2022-11-29T14:32:46.403Z,96826.72
2022-11-29T14:35:13.001Z,96833.56
2022-11-29T14:37:51.316Z,96837.72
2022-11-29T14:40:42.006Z,96825.69
2022-11-29T14:43:26.495Z,96836.72
2022-11-29T14:46:07.605Z,96831.47
2022-11-29T14:48:34.739Z,96833.28
2022-11-29T14:51:11.812Z,96836.53
2022-11-29T14:53:39.479Z,96839.19
2022-11-29T14:56:31.609Z,96839.25
2022-11-29T14:59:35.783Z,96842.66
2022-11-29T15:02:06.978Z,96843.47
2022-11-29T15:04:35.892Z,96855.38
2022-11-29T15:07:04.333Z,96857.16
2022-11-29T15:09:33.575Z,96852.91
2022-11-29T15:12:08.390Z,96854.63
2022-11-29T15:14:58.179Z,96847.78
2022-11-29T15:17:37.991Z,96850.38
2022-11-29T15:20:23.030Z,96849.59
2022-11-29T15:22:52.446Z,96852.19
2022-11-29T15:25:23.161Z,96853.09
2022-11-29T15:27:54.950Z,96863.25
2022-11-29T15:30:28.377Z,96847.97
2022-11-29T15:32:55.509Z,96852.25
2022-11-29T15:35:22.146Z,96852.22
2022-11-29T15:37:49.650Z,96852.19
2022-11-29T15:40:17.574Z,96851.38
2022-11-29T15:42:57.916Z,96857.19
2022-11-29T15:45:36.443Z,96858.88
2022-11-29T15:48:19.386Z,96866.53
2022-11-29T15:51:00.658Z,96864.84
2022-11-29T15:53:35.289Z,96864.00
2022-11-29T15:56:04.049Z,96868.19
2022-11-29T15:58:33.484Z,96861.41
2022-11-29T16:01:01.396Z,96871.59
2022-11-29T16:03:32.867Z,96871.56
2022-11-29T16:06:15.603Z,96868.19
2022-11-29T16:08:43.654Z,96870.75
2022-11-29T16:11:17.154Z,96875.75
2022-11-29T16:14:02.947Z,96874.81
2022-11-29T16:16:32.566Z,96878.16
2022-11-29T16:19:10.400Z,96883.19
2022-11-29T16:21:36.811Z,96879.69
2022-11-29T16:24:18.131Z,96881.38
2022-11-29T16:26:46.382Z,96883.03
2022-11-29T16:29:28.634Z,96882.00
2022-11-29T16:31:55.528Z,96886.97
2022-11-29T16:34:29.853Z,96881.78
2022-11-29T16:37:02.301Z,96884.19
2022-11-29T16:39:29.453Z,96885.03
2022-11-29T16:42:13.846Z,96890.72
2022-11-29T16:44:40.232Z,96893.19
2022-11-29T16:47:20.273Z,96891.38
2022-11-29T16:50:09.497Z,96887.19
2022-11-29T16:52:35.859Z,96892.19
2022-11-29T16:55:02.228Z,96897.19
2022-11-29T16:57:29.782Z,96895.53
2022-11-29T16:59:56.150Z,96895.53
2022-11-29T17:02:22.694Z,96899.81
2022-11-29T17:04:50.818Z,96894.78
2022-11-29T17:07:30.193Z,96901.66
2022-11-29T17:09:57.031Z,96898.22
2022-11-29T17:12:23.414Z,96901.63
2022-11-29T17:14:49.830Z,96899.94
2022-11-29T17:17:18.006Z,96907.69
2022-11-29T17:19:44.986Z,96908.53
2022-11-29T17:22:12.090Z,96904.25
2022-11-29T17:24:41.188Z,96912.81
2022-11-29T17:27:11.313Z,96908.75
2022-11-29T17:29:37.690Z,96899.34
2022-11-29T17:32:04.298Z,96912.06
2022-11-29T17:34:30.808Z,96914.69
2022-11-29T17:36:57.478Z,96907.84
2022-11-29T17:39:23.819Z,96911.28
2022-11-29T17:41:50.161Z,96907.03
2022-11-29T17:44:16.558Z,96915.50
2022-11-29T17:46:42.979Z,96920.69
2022-11-29T17:49:10.539Z,96924.94
2022-11-29T17:51:54.273Z,96920.81
2022-11-29T17:54:22.347Z,96927.63
2022-11-29T17:56:49.354Z,96932.78
2022-11-29T17:59:15.730Z,96927.63
2022-11-29T18:01:42.258Z,96932.81
2022-11-29T18:04:08.690Z,96934.56
2022-11-29T18:06:40.159Z,96928.63
2022-11-29T18:09:09.850Z,96925.28
2022-11-29T18:11:47.057Z,96917.59
2022-11-29T18:14:17.016Z,96916.00
2022-11-29T18:16:45.247Z,96914.97
2022-11-29T18:19:14.133Z,96909.81
2022-11-29T18:21:40.570Z,96919.19
2022-11-29T18:24:07.371Z,96922.53
2022-11-29T18:26:34.931Z,96924.28
2022-11-29T18:29:01.556Z,96928.47
2022-11-29T18:31:33.632Z,96932.81
2022-11-29T18:34:02.449Z,96933.03
2022-11-29T18:36:34.401Z,96939.72
2022-11-29T18:39:03.674Z,96938.03
2022-11-29T18:41:32.577Z,96941.50
2022-11-29T18:44:03.797Z,96951.66
2022-11-29T18:46:33.213Z,96947.38
2022-11-29T18:49:00.983Z,96943.06
2022-11-29T18:51:29.002Z,96954.06
2022-11-29T18:53:55.544Z,96948.09
2022-11-29T18:56:23.533Z,96948.09
2022-11-29T18:58:58.813Z,96950.72
2022-11-29T19:01:28.095Z,96955.72
2022-11-29T19:03:58.512Z,96963.41
2022-11-29T19:06:27.778Z,96960.91
2022-11-29T19:08:54.725Z,96960.31
2022-11-29T19:11:23.725Z,96962.13
2022-11-29T19:14:01.534Z,96958.84
2022-11-29T19:16:30.310Z,96954.53
2022-11-29T19:18:57.998Z,96959.78
2022-11-29T19:21:26.382Z,96960.47
2022-11-29T19:23:54.759Z,96963.88
2022-11-29T19:26:22.746Z,96976.34
2022-11-29T19:28:49.790Z,96975.53
2022-11-29T19:31:18.964Z,96978.06
2022-11-29T19:33:46.285Z,96983.25
2022-11-29T19:36:15.106Z,96981.69
2022-11-29T19:38:43.304Z,96979.19
2022-11-29T19:41:15.161Z,96978.13
2022-11-29T19:43:41.694Z,96977.34
2022-11-29T19:46:12.779Z,96973.59
2022-11-29T19:48:39.550Z,96976.06
2022-11-29T19:51:07.089Z,96980.84
2022-11-29T19:53:34.463Z,96989.31
2022-11-29T19:56:10.370Z,96990.13
2022-11-29T19:58:36.841Z,96995.06
2022-11-29T20:01:12.733Z,96990.59
2022-11-29T20:03:39.443Z,96996.38
2022-11-29T20:06:06.671Z,97003.00
2022-11-29T20:08:33.485Z,97011.41
2022-11-29T20:11:17.867Z,97009.75
2022-11-29T20:13:47.725Z,97013.25
2022-11-29T20:16:18.128Z,97013.38
2022-11-29T20:18:50.632Z,97014.97
2022-11-29T20:21:20.568Z,97016.91
2022-11-29T20:23:47.357Z,97013.59
2022-11-29T20:26:16.654Z,97014.47
2022-11-29T20:28:43.949Z,97019.59
2022-11-29T20:31:13.644Z,97016.13
2022-11-29T20:33:42.160Z,97013.56
2022-11-29T20:36:30.427Z,97008.66
2022-11-29T20:39:18.667Z,97013.81
2022-11-29T20:42:16.206Z,97012.94
2022-11-29T20:44:55.502Z,97012.25
2022-11-29T20:47:24.643Z,97019.03
2022-11-29T20:49:51.454Z,97015.59
2022-11-29T20:52:42.358Z,97019.91
2022-11-29T20:55:08.937Z,97019.91
2022-11-29T20:57:38.143Z,97012.34
2022-11-29T21:00:07.611Z,97013.88
2022-11-29T21:02:34.036Z,97014.81
2022-11-29T21:05:00.460Z,97015.66
2022-11-29T21:07:27.151Z,97024.16
2022-11-29T21:09:56.690Z,97024.97
2022-11-29T21:12:27.847Z,97023.31
2022-11-29T21:14:54.538Z,97025.81
2022-11-29T21:17:21.071Z,97033.41
2022-11-29T21:19:47.728Z,97024.06
2022-11-29T21:22:42.394Z,97022.50
2022-11-29T21:25:49.845Z,97030.16
2022-11-29T21:28:17.280Z,97030.88
2022-11-29T21:30:44.364Z,97024.81
2022-11-29T21:33:11.281Z,97023.94
2022-11-29T21:35:39.770Z,97031.53
2022-11-29T21:38:10.040Z,97024.53
2022-11-29T21:40:36.406Z,97024.41
2022-11-29T21:43:02.736Z,97019.16
2022-11-29T21:45:29.073Z,97030.25
2022-11-29T21:47:59.903Z,97030.09
2022-11-29T21:50:26.386Z,97022.56
2022-11-29T21:52:53.003Z,97019.31
2022-11-29T21:55:19.461Z,97027.00
2022-11-29T21:57:45.806Z,97023.59
2022-11-29T22:00:12.655Z,97023.66
2022-11-29T22:02:39.169Z,97016.84
2022-11-29T22:05:07.826Z,97024.41
2022-11-29T22:07:34.227Z,97028.66
2022-11-29T22:10:10.055Z,97031.31
2022-11-29T22:12:42.857Z,97031.41
2022-11-29T22:15:13.877Z,97034.69
2022-11-29T22:17:40.368Z,97040.63
2022-11-29T22:20:07.439Z,97043.34
2022-11-29T22:22:33.813Z,97042.47
2022-11-29T22:25:00.149Z,97033.94
2022-11-29T22:27:26.483Z,97030.59
2022-11-29T22:29:52.812Z,97031.47
2022-11-29T22:32:19.290Z,97032.34
2022-11-29T22:34:45.902Z,97033.94
2022-11-29T22:37:13.645Z,97035.53
2022-11-29T22:39:39.996Z,97041.53
2022-11-29T22:42:06.309Z,97039.00
2022-11-29T22:44:32.650Z,97040.75
2022-11-29T22:46:59.041Z,97029.63
2022-11-29T22:49:25.503Z,97036.47
2022-11-29T22:51:52.338Z,97028.78
2022-11-29T22:54:18.798Z,97026.28
2022-11-29T22:56:45.722Z,97026.28
2022-11-29T22:59:12.606Z,97035.47
2022-11-29T23:01:40.867Z,97032.00
2022-11-29T23:04:09.942Z,97021.84
2022-11-29T23:06:42.015Z,97021.78
2022-11-29T23:09:21.553Z,97026.91
2022-11-29T23:11:55.700Z,97035.91
2022-11-29T23:14:23.167Z,97026.41
2022-11-29T23:16:49.706Z,97030.09
2022-11-29T23:19:16.615Z,97026.72
2022-11-29T23:21:45.432Z,97025.00
2022-11-29T23:24:12.207Z,97018.31
2022-11-29T23:26:40.915Z,97026.94
2022-11-29T23:29:13.748Z,97012.38
2022-11-29T23:31:40.640Z,97012.28
2022-11-29T23:34:07.663Z,97010.47
2022-11-29T23:36:34.796Z,97021.34
2022-11-29T23:39:01.432Z,97018.81
2022-11-29T23:41:27.894Z,97018.72
2022-11-29T23:43:54.409Z,97016.06
2022-11-29T23:46:23.982Z,97018.50
2022-11-29T23:48:51.276Z,97017.50
2022-11-29T23:51:18.605Z,97007.00
2022-11-29T23:53:46.550Z,97022.13
2022-11-29T23:56:15.913Z,97022.13
2022-11-29T23:58:43.559Z,97000.91
